KGRB

Austin Straubel International Airport

Airport
ICAO code
KGRB
Summary
ICAO Region
NAM
ICAO Territory
Location

Green Bay, Wisconsin,

Elevation
695 ft
Coordinates
44° 29' 31" N , 88° 7' 39" W
KCC
Airport CFIT
Altimeter Temperature Error Correction
Metar
Observation
KGRB 031953Z AUTO 23006KT 10SM CLR 22/05 A3032 RMK AO2 SLP270 T02170050
Station
Green Bay, Austin Straubel International Airport
Date/Time
2022-10-03 19:53:00
Wind direction
230°
Wind speed
06 kts
Lowest cloud amount
n/a
Temperature
21.7°C
Dew point
5°C
Humidity
33%
Weather condition
n/a

Description

Austin Straubel International Airport is a public use airport located in Brown County, Wisconsin, 13 km southwest of the central business district of Green Bay.

Climatology

Humid continental climate (Köppen climate classification Dfa) - characterized by four seasons: cold, windy, snowy winters, mild springs, hot, humid summers, and crisp and relatively short autumns. Precipitation reaches its lowest in January and February and peaks in summer and latter half of spring.

Airport map

Aerial View

SKYbrary Partners:

Safety knowledge contributed by: